Details From RJFF - FUKUOKA
To RJFR - NEW KITAKYUSHU
Flight Number -
Tags generated
Created
Modified
Stats Distance 33 nm / 61 km
Max Altitude 1,900 ft / 579 m
Waypoints 3
Social Downloads 0
Likes 0
Share VATSIM

Download

Looking for another format? Having issues loading an existing format? Contact us
Advertisement - Login to hide

Notes

Basic altitude profile: - Ascent Rate: 2500ft/min - Ascent Speed: 250kts - Cruise Altitude: 35000ft - Cruise Speed: 420kts - Descent Rate: 1500ft/min - Descent Speed: 250kts Options: - Use NATs: yes - Use PACOTS: yes - Use low airways: yes - Use high airways: yes

Route

RJFF DGC25 RJFR

ID Type Via Altitude Latitude Longitude Leg Dist Tot Dist Heading (true) Name
O RJFF APT - 0 ft / 0 m 33.58594˚ 130.45069˚ - 0 nm - FUKUOKA
DGC25 FIX - 1,900 ft / 579 m 33.78821˚ 130.87091˚ 24 nm 24 nm 60° / 60° -
O RJFR APT - 0 ft / 0 m 33.84594˚ 131.03469˚ 8 nm 33 nm 67° / 67° NEW KITAKYUSHU

Altitude Profile

Advertisement - Login to hide

RJFF

Details ICAO RJFF (FUK)
Name FUKUOKA
Region Japan
Timezone Asia/Tokyo (UTC+9.0)
Stats Elevation 32 ft / 10 m (AMSL)
Location 33.585943° 130.450686°
Runways 1
Magnetic Variation 7.448° W

METAR

RJFF 111700Z AUTO 29013G24KT 250V330 9999 -SNRA FEW014 BKN037 BKN041 04/M02 Q1023 RMK A3021

Decode

TAF

TAF RJFF 111107Z 1112/1218 30020G30KT 8000 -SHSNRA FEW015 SCT030 BKN040 TEMPO 1115/1118 4000 -SHSNRA TEMPO 1118/1200 3000 -SHSN BECMG 1209/1212 32010KT

Decode

Departure Runways

ID Width Length Bearing (true) Bearing (mag) Surface Threshold Offset Overrun Length
16 197 ft / 60 m 9,217 ft / 2,810 m 150.35° 157.80° Asphalt 0 ft / 0 m 719 ft / 219 m
34 197 ft / 60 m 9,217 ft / 2,810 m 330.35° 337.80° Asphalt 0 ft / 0 m 801 ft / 244 m

RJFR

Details ICAO RJFR (KKJ)
Name NEW KITAKYUSHU
Region Japan
Timezone Asia/Tokyo (UTC+9.0)
Stats Elevation 21 ft / 6 m (AMSL)
Location 33.845940° 131.034689°
Runways 1
Magnetic Variation 7.534° W

METAR

RJFR 111702Z 28017G27KT 9999 -SHSNRA FEW010 BKN020 BKN025 03/M04 Q1021 RMK 2CU010 5CU020 6CU025 A3018

Decode

TAF

TAF AMD TAF AMD RJFR 111241Z 1112/1218 28022G35KT 8000 -SHSNRA FEW010 SCT020 BKN035 TEMPO 1112/1114 29035G45KT TEMPO 1117/1121 2000 -SHSNRA BECMG 1209/1212 29011KT

Decode

Destination Runways

ID Width Length Bearing (true) Bearing (mag) Surface Threshold Offset Overrun Length
18 260 ft / 79 m 8,625 ft / 2,629 m 170.36° 177.89° Asphalt 0 ft / 0 m 0 ft / 0 m
36 260 ft / 79 m 8,625 ft / 2,629 m 350.36° 357.89° Asphalt 0 ft / 0 m 0 ft / 0 m

Approach Navaids

Runway Type Ident Frequency Range Bearing (true) Bearing (mag) Slope Elevation
18 Localiser IKQ 109.15 MHz 18 nm / 33 km 169.76° 177.30° - 54 ft / 16 m (AMSL)
18 Glidescope IKQ 109.15 MHz 10 nm / 19 km 170.36° 177.89° 3.00° 46 ft / 14 m (AMSL)

Popular Alternatives